Time;durP1;ratioP1;P1;durP2;ratioP2;P2;SDS_P1;SDS_P2;PMS_P1;PMS_P2;Temp;Humidity;BMP_temperature;BMP_pressure;BME280_temperature;BME280_humidity;BME280_pressure;Samples;Min_cycle;Max_cycle;Signal;HPM_P1;HPM_P2
2022/04/10 00:01:09;;;;;;;0.90;0.90;;;;;4.90;96307.00;;;;5078908;28;20466;-83
2022/04/10 00:03:58;;;;;;;2.07;1.10;;;;;4.90;96322.00;;;;5081156;28;20937;-84
2022/04/10 00:06:48;;;;;;;1.80;1.10;;;;;4.90;96313.00;;;;5078049;28;20212;-84
2022/04/10 00:09:37;;;;;;;1.90;1.03;;;;;5.00;96314.00;;;;5059378;28;20444;-84
2022/04/10 00:12:27;;;;;;;1.57;1.00;;;;;4.90;96314.00;;;;5068254;28;20427;-82
2022/04/10 00:15:16;;;;;;;0.90;0.90;;;;;4.70;96323.00;;;;5063576;28;20231;-86
2022/04/10 00:18:05;;;;;;;2.63;1.40;;;;;4.60;96316.00;;;;5048953;28;20676;-83
2022/04/10 00:20:54;;;;;;;3.13;1.07;;;;;4.90;96322.00;;;;5062680;28;20888;-82
2022/04/10 00:23:45;;;;;;;2.90;1.10;;;;;4.90;96325.00;;;;5062027;28;20450;-85
2022/04/10 00:26:34;;;;;;;3.93;1.13;;;;;5.00;96320.00;;;;5060675;28;20461;-83
2022/04/10 00:29:23;;;;;;;1.10;1.00;;;;;4.90;96322.00;;;;5079004;28;20792;-84
2022/04/10 00:32:12;;;;;;;1.47;0.83;;;;;4.90;96313.00;;;;5080572;28;20429;-84
2022/04/10 00:35:01;;;;;;;1.00;0.90;;;;;4.90;96330.00;;;;5058982;28;20770;-83
2022/04/10 00:37:50;;;;;;;0.83;0.83;;;;;4.60;96326.00;;;;5061947;28;20431;-86
2022/04/10 00:40:42;;;;;;;4.97;0.80;;;;;4.70;96338.00;;;;5067582;28;20434;-83
2022/04/10 00:43:32;;;;;;;1.73;0.80;;;;;4.80;96330.00;;;;5073845;28;20426;-84
2022/04/10 00:46:21;;;;;;;3.93;1.27;;;;;4.80;96331.00;;;;5078651;28;20430;-83
2022/04/10 00:49:10;;;;;;;2.50;2.20;;;;;4.60;96329.00;;;;5078797;28;20523;-85
2022/04/10 00:52:01;;;;;;;2.57;1.30;;;;;4.50;96326.00;;;;5079207;28;20426;-84
2022/04/10 00:54:50;;;;;;;0.83;0.80;;;;;4.60;96332.00;;;;5076948;28;20427;-84
2022/04/10 00:57:41;;;;;;;7.83;0.93;;;;;4.70;96337.00;;;;5075403;28;20423;-83
2022/04/10 01:00:30;;;;;;;0.90;0.80;;;;;4.70;96333.00;;;;5078684;28;21088;-83
2022/04/10 01:03:18;;;;;;;2.67;1.07;;;;;4.60;96334.00;;;;5077070;28;20426;-85
2022/04/10 01:06:08;;;;;;;2.03;1.00;;;;;4.50;96333.00;;;;5076593;28;20438;-83
2022/04/10 01:08:57;;;;;;;0.90;0.70;;;;;4.70;96338.00;;;;5053999;28;20432;-83
2022/04/10 01:11:46;;;;;;;5.73;1.13;;;;;4.90;96341.00;;;;5062488;28;20426;-84
2022/04/10 01:14:37;;;;;;;1.70;0.77;;;;;4.80;96356.00;;;;5062112;28;20435;-85
2022/04/10 01:17:26;;;;;;;1.53;1.00;;;;;5.10;96337.00;;;;5059292;28;20442;-84
2022/04/10 01:20:15;;;;;;;1.70;1.17;;;;;4.90;96339.00;;;;5055174;28;20954;-85
2022/04/10 01:23:06;;;;;;;2.13;0.90;;;;;5.10;96347.00;;;;5054452;28;20474;-84
2022/04/10 01:25:55;;;;;;;1.50;1.00;;;;;4.90;96356.00;;;;5062743;28;20462;-84
2022/04/10 01:29:00;;;;;;;1.07;0.80;;;;;5.10;96337.00;;;;5077122;28;21267;-83
2022/04/10 01:31:49;;;;;;;2.07;0.90;;;;;4.80;96350.00;;;;5081170;28;20430;-83
2022/04/10 01:34:39;;;;;;;1.03;0.83;;;;;4.70;96336.00;;;;5061858;28;20426;-84
2022/04/10 01:37:29;;;;;;;2.27;1.20;;;;;4.60;96346.00;;;;5062782;28;20311;-85
2022/04/10 01:40:20;;;;;;;1.30;0.73;;;;;4.50;96332.00;;;;5060213;28;21023;-85
2022/04/10 01:43:09;;;;;;;1.07;0.70;;;;;4.40;96320.00;;;;5055963;28;20690;-84
2022/04/10 01:45:58;;;;;;;1.60;0.87;;;;;4.30;96332.00;;;;5057267;28;20447;-84
2022/04/10 01:48:47;;;;;;;1.70;0.60;;;;;4.20;96327.00;;;;5057132;28;20442;-82
2022/04/10 01:51:36;;;;;;;1.10;1.00;;;;;4.10;96337.00;;;;5058392;28;20438;-84
2022/04/10 01:54:25;;;;;;;0.60;0.50;;;;;4.40;96333.00;;;;5058122;28;20436;-83
2022/04/10 01:57:15;;;;;;;0.70;0.70;;;;;4.50;96343.00;;;;5045578;28;20783;-84
2022/04/10 02:00:06;;;;;;;1.13;0.87;;;;;4.60;96349.00;;;;5061621;28;20427;-84
2022/04/10 02:02:55;;;;;;;0.67;0.60;;;;;4.60;96343.00;;;;5075404;28;20466;-85
2022/04/10 02:05:44;;;;;;;2.43;1.00;;;;;4.60;96344.00;;;;5079077;28;20454;-85
2022/04/10 02:08:34;;;;;;;0.90;0.63;;;;;4.50;96348.00;;;;5054101;28;20423;-85
2022/04/10 02:11:23;;;;;;;1.57;0.80;;;;;4.70;96365.00;;;;5067308;28;20432;-85
2022/04/10 02:14:14;;;;;;;0.90;0.90;;;;;4.80;96352.00;;;;5057149;28;20427;-84
2022/04/10 02:17:03;;;;;;;3.33;0.90;;;;;4.60;96349.00;;;;5060954;28;20460;-84
2022/04/10 02:19:52;;;;;;;1.83;0.93;;;;;4.70;96362.00;;;;5091180;22;21014;-69
2022/04/10 02:22:41;;;;;;;1.60;1.00;;;;;4.60;96346.00;;;;5083015;28;20462;-70
2022/04/10 02:25:30;;;;;;;0.90;0.90;;;;;4.40;96361.00;;;;5097912;28;20430;-70
2022/04/10 02:28:19;;;;;;;1.00;0.87;;;;;4.50;96354.00;;;;5098178;28;20456;-71
2022/04/10 02:31:09;;;;;;;0.63;0.60;;;;;4.30;96356.00;;;;5110535;28;20704;-68
2022/04/10 02:33:58;;;;;;;2.27;0.73;;;;;4.70;96369.00;;;;5104154;28;20935;-68
2022/04/10 02:36:47;;;;;;;1.37;0.83;;;;;4.70;96375.00;;;;5109553;28;20503;-69
2022/04/10 02:39:36;;;;;;;1.03;0.70;;;;;4.70;96356.00;;;;5104056;28;20872;-68
2022/04/10 02:42:27;;;;;;;1.03;0.90;;;;;4.90;96366.00;;;;5098262;28;20460;-71
2022/04/10 02:45:16;;;;;;;3.87;1.23;;;;;4.90;96369.00;;;;5109355;28;20421;-71
2022/04/10 02:48:07;;;;;;;2.40;0.97;;;;;4.80;96359.00;;;;5109155;28;20460;-71
2022/04/10 02:50:56;;;;;;;1.43;0.90;;;;;4.80;96366.00;;;;5109419;28;20812;-68
2022/04/10 02:53:46;;;;;;;0.87;0.63;;;;;4.80;96365.00;;;;5108557;28;20447;-69
2022/04/10 02:56:35;;;;;;;1.80;0.90;;;;;4.70;96382.00;;;;5107206;28;20417;-71
2022/04/10 02:59:24;;;;;;;1.70;0.87;;;;;4.60;96366.00;;;;5109861;28;20970;-70
2022/04/10 03:02:13;;;;;;;3.30;1.10;;;;;4.60;96376.00;;;;5109127;28;20461;-72
2022/04/10 03:05:03;;;;;;;2.00;0.70;;;;;4.50;96375.00;;;;5109038;28;20432;-71
2022/04/10 03:07:52;;;;;;;1.17;0.90;;;;;4.60;96376.00;;;;5099802;28;20452;-70
2022/04/10 03:10:41;;;;;;;2.33;0.93;;;;;4.70;96372.00;;;;5103896;28;20425;-70
2022/04/10 03:13:30;;;;;;;0.60;0.53;;;;;4.50;96370.00;;;;5105980;28;20420;-70
2022/04/10 03:16:19;;;;;;;1.80;0.90;;;;;4.40;96378.00;;;;5109060;28;20432;-71
2022/04/10 03:19:08;;;;;;;1.00;0.90;;;;;4.60;96384.00;;;;5105112;28;20457;-71
2022/04/10 03:21:58;;;;;;;1.93;0.80;;;;;4.40;96379.00;;;;5088168;28;20444;-71
2022/04/10 03:24:47;;;;;;;0.80;0.80;;;;;4.40;96377.00;;;;5090176;28;20426;-71
2022/04/10 03:27:36;;;;;;;1.50;1.40;;;;;4.40;96383.00;;;;5088249;28;20979;-69
2022/04/10 03:30:25;;;;;;;0.60;0.60;;;;;4.60;96391.00;;;;5089103;28;20433;-68
2022/04/10 03:33:14;;;;;;;1.10;1.00;;;;;4.50;96389.00;;;;5089014;28;20820;-68
2022/04/10 03:36:04;;;;;;;2.20;1.13;;;;;4.50;96396.00;;;;5088694;28;20806;-67
2022/04/10 03:38:54;;;;;;;1.13;1.03;;;;;4.60;96392.00;;;;5086887;28;20800;-68
2022/04/10 03:41:43;;;;;;;0.80;0.80;;;;;4.60;96396.00;;;;5078819;28;20879;-68
2022/04/10 03:44:32;;;;;;;0.90;0.80;;;;;4.80;96402.00;;;;5076203;28;20468;-70
2022/04/10 03:47:21;;;;;;;3.60;1.43;;;;;4.90;96416.00;;;;5088310;28;20788;-69
2022/04/10 03:50:10;;;;;;;0.97;0.97;;;;;4.70;96407.00;;;;5088913;28;20449;-70
2022/04/10 03:52:59;;;;;;;3.50;1.20;;;;;4.50;96407.00;;;;5088034;28;20421;-70
2022/04/10 03:55:49;;;;;;;1.80;1.37;;;;;4.70;96420.00;;;;5089446;28;20432;-70
2022/04/10 03:58:38;;;;;;;1.13;0.77;;;;;4.80;96425.00;;;;5087837;28;20458;-70
2022/04/10 04:01:27;;;;;;;4.00;1.37;;;;;4.60;96416.00;;;;5088081;28;20417;-70
2022/04/10 04:04:16;;;;;;;3.07;1.00;;;;;4.60;96424.00;;;;5087713;28;20470;-70
2022/04/10 04:07:05;;;;;;;1.10;1.00;;;;;4.60;96432.00;;;;5088058;28;20433;-70
2022/04/10 04:09:54;;;;;;;2.53;1.30;;;;;4.70;96427.00;;;;5079775;28;20429;-70
2022/04/10 04:12:44;;;;;;;1.43;0.97;;;;;4.50;96429.00;;;;5086448;28;20195;-70
2022/04/10 04:15:33;;;;;;;1.17;0.80;;;;;4.50;96442.00;;;;5084227;28;20426;-70
2022/04/10 04:18:22;;;;;;;1.07;0.93;;;;;4.20;96438.00;;;;5079444;28;20215;-70
2022/04/10 04:21:11;;;;;;;0.90;0.80;;;;;4.30;96449.00;;;;5101683;28;20585;-70
2022/04/10 04:24:00;;;;;;;1.97;1.07;;;;;4.40;96446.00;;;;5098136;28;20590;-70
2022/04/10 04:26:49;;;;;;;3.03;0.90;;;;;4.20;96443.00;;;;5098917;28;20437;-71
2022/04/10 04:29:40;;;;;;;3.23;0.80;;;;;4.10;96450.00;;;;5100650;23;20501;-88
2022/04/10 04:32:29;;;;;;;1.00;0.90;;;;;4.00;96450.00;;;;5079903;28;20438;-87
2022/04/10 04:35:18;;;;;;;1.40;0.90;;;;;3.90;96461.00;;;;5078172;28;20426;-87
2022/04/10 04:38:07;;;;;;;1.17;0.63;;;;;3.90;96454.00;;;;5080316;28;20442;-86
2022/04/10 04:40:56;;;;;;;2.27;1.10;;;;;3.80;96454.00;;;;5084851;28;20439;-85
2022/04/10 04:43:45;;;;;;;1.57;1.00;;;;;3.70;96461.00;;;;5087095;28;20532;-87
2022/04/10 04:46:36;;;;;;;0.80;0.80;;;;;3.90;96456.00;;;;5080301;28;20433;-87
2022/04/10 04:49:25;;;;;;;1.20;0.87;;;;;3.80;96470.00;;;;5081711;28;20454;-87
2022/04/10 04:52:16;;;;;;;3.33;1.03;;;;;3.70;96480.00;;;;5076221;28;20473;-87
2022/04/10 04:55:07;;;;;;;1.17;0.90;;;;;3.60;96477.00;;;;5074134;28;20427;-86
2022/04/10 04:57:56;;;;;;;1.10;1.00;;;;;3.30;96475.00;;;;5080705;28;20449;-87
2022/04/10 05:00:45;;;;;;;2.80;1.23;;;;;3.20;96478.00;;;;5083943;28;20453;-87
2022/04/10 05:03:35;;;;;;;1.00;0.90;;;;;2.70;96477.00;;;;5084841;28;20480;-87
2022/04/10 05:06:26;;;;;;;1.43;1.10;;;;;2.70;96496.00;;;;5082268;28;20426;-88
2022/04/10 05:09:15;;;;;;;1.30;1.20;;;;;3.00;96496.00;;;;5081801;28;20469;-87
2022/04/10 05:12:04;;;;;;;2.67;1.10;;;;;2.70;96486.00;;;;5082895;28;21000;-88
2022/04/10 05:14:53;;;;;;;0.80;0.80;;;;;2.60;96485.00;;;;5081551;28;20423;-87
2022/04/10 05:17:42;;;;;;;4.40;1.57;;;;;2.50;96498.00;;;;5083161;28;20430;-85
2022/04/10 05:20:33;;;;;;;3.13;0.90;;;;;2.50;96507.00;;;;5082139;28;20450;-86
2022/04/10 05:23:22;;;;;;;1.90;1.47;;;;;1.80;96510.00;;;;5081792;28;20473;-88
2022/04/10 05:26:11;;;;;;;0.70;0.70;;;;;1.80;96500.00;;;;5076606;28;20457;-87
2022/04/10 05:29:00;;;;;;;1.07;0.97;;;;;2.80;96532.00;;;;5069585;28;20467;-88
2022/04/10 05:31:49;;;;;;;0.50;0.50;;;;;2.80;96522.00;;;;5078421;28;20445;-85
2022/04/10 05:34:38;;;;;;;0.90;0.90;;;;;2.90;96517.00;;;;5072251;28;20830;-87
2022/04/10 05:37:29;;;;;;;3.43;1.10;;;;;3.60;96521.00;;;;5077072;28;20440;-88
2022/04/10 05:40:18;;;;;;;3.07;1.07;;;;;4.00;96525.00;;;;5081412;28;20442;-88
2022/04/10 05:43:07;;;;;;;1.97;1.00;;;;;4.50;96538.00;;;;5077379;28;20429;-88
2022/04/10 05:45:56;;;;;;;2.43;1.40;;;;;4.60;96532.00;;;;5077721;28;20424;-87
2022/04/10 05:48:46;;;;;;;0.93;0.93;;;;;4.50;96539.00;;;;5077426;28;20925;-87
2022/04/10 05:51:35;;;;;;;3.30;1.63;;;;;4.10;96531.00;;;;5083192;28;20941;-88
2022/04/10 05:54:25;;;;;;;1.30;0.90;;;;;3.90;96533.00;;;;5074710;28;20427;-87
2022/04/10 05:57:14;;;;;;;1.80;1.27;;;;;3.80;96531.00;;;;5081927;28;20814;-87
2022/04/10 06:00:06;;;;;;;2.53;1.80;;;;;4.50;96543.00;;;;5075089;28;20455;-87
2022/04/10 06:02:55;;;;;;;2.57;1.30;;;;;4.50;96545.00;;;;5078467;28;20435;-87
2022/04/10 06:05:44;;;;;;;2.67;1.63;;;;;4.20;96545.00;;;;5080324;28;20438;-87
2022/04/10 06:08:34;;;;;;;1.60;1.33;;;;;4.60;96545.00;;;;5080285;28;20418;-88
2022/04/10 06:11:27;;;;;;;1.77;1.67;;;;;4.50;96561.00;;;;5081169;28;20438;-88
2022/04/10 06:14:16;;;;;;;1.73;1.37;;;;;4.60;96549.00;;;;5072526;28;20431;-87
2022/04/10 06:17:07;;;;;;;1.63;1.20;;;;;5.00;96548.00;;;;5079472;28;20443;-87
2022/04/10 06:19:56;;;;;;;1.97;1.17;;;;;5.20;96565.00;;;;5078543;28;20458;-88
2022/04/10 06:22:45;;;;;;;1.33;1.23;;;;;5.50;96563.00;;;;5073305;28;20439;-88
2022/04/10 06:25:34;;;;;;;4.07;1.23;;;;;5.70;96560.00;;;;5078105;28;20979;-88
2022/04/10 06:28:24;;;;;;;2.17;0.90;;;;;6.40;96560.00;;;;5078016;28;20501;-87
2022/04/10 06:31:13;;;;;;;1.20;0.90;;;;;6.80;96561.00;;;;5075662;28;20470;-88
2022/04/10 06:34:02;;;;;;;1.60;1.17;;;;;7.00;96565.00;;;;5072005;28;20205;-86
2022/04/10 06:36:51;;;;;;;2.10;0.93;;;;;7.20;96577.00;;;;5073762;28;20200;-87
2022/04/10 06:39:40;;;;;;;1.60;0.83;;;;;7.40;96573.00;;;;5073208;28;20224;-88
2022/04/10 06:42:29;;;;;;;0.90;0.67;;;;;7.30;96557.00;;;;5080193;28;20207;-86
2022/04/10 06:45:21;;;;;;;1.13;0.60;;;;;7.40;96564.00;;;;5083153;28;20234;-89
2022/04/10 06:48:10;;;;;;;2.23;0.80;;;;;7.20;96565.00;;;;5082076;28;20214;-87
2022/04/10 06:50:59;;;;;;;1.27;0.77;;;;;7.30;96566.00;;;;5078876;28;20220;-87
2022/04/10 06:53:48;;;;;;;0.83;0.70;;;;;7.00;96562.00;;;;5072054;28;20200;-85
2022/04/10 06:56:37;;;;;;;1.63;0.90;;;;;7.40;96584.00;;;;5073886;28;20215;-88
2022/04/10 06:59:26;;;;;;;0.77;0.77;;;;;7.50;96565.00;;;;5079965;28;20246;-89
2022/04/10 07:02:17;;;;;;;2.07;0.93;;;;;7.90;96559.00;;;;5076735;28;20214;-85
2022/04/10 07:05:07;;;;;;;0.97;0.87;;;;;8.00;96577.00;;;;5078045;28;20227;-88
2022/04/10 07:07:56;;;;;;;1.03;0.93;;;;;7.90;96566.00;;;;5073927;28;20211;-87
2022/04/10 07:10:45;;;;;;;0.83;0.60;;;;;7.50;96565.00;;;;5079934;28;20212;-88
2022/04/10 07:13:35;;;;;;;0.73;0.57;;;;;7.90;96587.00;;;;5079821;28;20212;-87
2022/04/10 07:16:24;;;;;;;1.50;0.67;;;;;8.00;96569.00;;;;5081951;28;20724;-86
2022/04/10 07:19:14;;;;;;;0.87;0.70;;;;;9.10;96583.00;;;;5077499;28;20231;-85
2022/04/10 07:25:13;;;;;;;0.80;0.80;;;;;8.70;96590.00;;;;5081789;28;20215;-88
2022/04/10 07:28:02;;;;;;;3.10;0.80;;;;;8.60;96589.00;;;;5085467;28;20220;-86
2022/04/10 07:30:52;;;;;;;1.60;0.73;;;;;9.00;96588.00;;;;5083158;28;20224;-88
2022/04/10 07:33:41;;;;;;;1.37;0.60;;;;;9.40;96595.00;;;;5076244;28;20220;-88
2022/04/10 07:36:32;;;;;;;0.97;0.50;;;;;9.20;96605.00;;;;5062009;28;20192;-88
2022/04/10 07:39:22;;;;;;;2.60;0.50;;;;;8.70;96602.00;;;;5088616;28;20219;-86
2022/04/10 07:42:11;;;;;;;0.70;0.67;;;;;8.60;96596.00;;;;5077028;28;20204;-85
2022/04/10 07:48:30;;;;;;;2.17;0.67;;;;;9.30;96607.00;;;;5075740;28;20207;-87
2022/04/10 07:51:22;;;;;;;1.37;0.80;;;;;9.30;96623.00;;;;5071031;28;20199;-90
2022/04/10 07:54:17;;;;;;;1.17;0.70;;;;;9.60;96634.00;;;;5059141;28;20220;-90
2022/04/10 07:57:09;;;;;;;0.83;0.80;;;;;8.90;96607.00;;;;5072225;28;20226;-89
2022/04/10 07:59:58;;;;;;;1.57;0.90;;;;;9.80;96618.00;;;;5072750;28;20229;-88
2022/04/10 08:02:48;;;;;;;0.70;0.70;;;;;9.70;96609.00;;;;5073039;28;20564;-87
2022/04/10 08:05:40;;;;;;;1.63;1.00;;;;;9.40;96615.00;;;;5063661;28;20776;-89
2022/04/10 08:08:43;;;;;;;2.87;0.93;;;;;9.80;96634.00;;;;5063738;28;20219;-88
2022/04/10 08:11:22;;;;;;;0.70;0.70;;;;;9.30;96621.00;;;;5060918;28;20231;-87
2022/04/10 08:14:01;;;;;;;2.87;0.73;;;;;8.80;96607.00;;;;5068079;28;20220;-87
2022/04/10 08:16:35;;;;;;;1.40;0.80;;;;;9.10;96620.00;;;;5085324;28;20195;-89
2022/04/10 08:19:04;;;;;;;1.23;0.80;;;;;9.20;96626.00;;;;5104743;23;20295;-72
2022/04/10 08:21:38;;;;;;;0.70;0.70;;;;;8.90;96619.00;;;;5041361;28;20200;-70
2022/04/10 08:24:09;;;;;;;1.03;1.00;;;;;8.90;96628.00;;;;5044986;28;20209;-70
2022/04/10 08:26:39;;;;;;;1.83;1.00;;;;;9.60;96629.00;;;;5040441;28;20675;-70
2022/04/10 08:29:11;;;;;;;0.80;0.77;;;;;10.20;96633.00;;;;5039198;28;20637;-70
2022/04/10 08:31:39;;;;;;;0.90;0.90;;;;;10.10;96637.00;;;;5039541;28;20784;-69
2022/04/10 08:34:09;;;;;;;1.10;1.00;;;;;10.20;96637.00;;;;5076849;23;20253;-70
2022/04/10 08:36:39;;;;;;;0.77;0.77;;;;;10.60;96636.00;;;;5077931;28;20290;-68
2022/04/10 08:39:08;;;;;;;1.13;1.03;;;;;10.70;96641.00;;;;5078236;28;20864;-70
2022/04/10 08:42:00;;;;;;;1.50;0.80;;;;;10.80;96649.00;;;;5080951;28;20206;-69
2022/04/10 08:44:51;;;;;;;1.00;0.90;;;;;10.40;96659.00;;;;5078028;28;20660;-70
2022/04/10 08:47:40;;;;;;;1.53;1.43;;;;;10.00;96658.00;;;;5081698;28;20211;-70
2022/04/10 08:50:29;;;;;;;1.00;0.80;;;;;10.50;96635.00;;;;5076818;28;20215;-70
2022/04/10 08:53:18;;;;;;;0.70;0.70;;;;;9.60;96627.00;;;;5078550;28;20678;-70
2022/04/10 08:56:08;;;;;;;1.30;1.20;;;;;10.60;96648.00;;;;5079474;28;20254;-70
2022/04/10 08:58:59;;;;;;;1.63;0.80;;;;;9.80;96664.00;;;;5077639;28;20206;-71
2022/04/10 09:01:51;;;;;;;1.67;0.83;;;;;9.80;96657.00;;;;5081691;28;20211;-71
2022/04/10 09:04:41;;;;;;;1.23;0.90;;;;;10.80;96654.00;;;;5082119;28;20233;-70
2022/04/10 09:07:30;;;;;;;1.80;1.10;;;;;11.50;96664.00;;;;5084766;28;20234;-69
2022/04/10 09:10:19;;;;;;;1.20;1.10;;;;;11.40;96646.00;;;;5077383;28;20215;-69
2022/04/10 09:13:09;;;;;;;1.53;1.03;;;;;11.30;96658.00;;;;5082356;28;20211;-65
2022/04/10 09:16:10;;;;;;;1.53;0.80;;;;;12.00;96661.00;;;;5082698;28;20211;-70
2022/04/10 09:19:01;;;;;;;1.20;0.73;;;;;12.20;96675.00;;;;5081105;28;20293;-69
2022/04/10 09:21:50;;;;;;;1.43;0.93;;;;;10.30;96661.00;;;;5079038;28;20199;-72
2022/04/10 09:25:04;;;;;;;1.90;1.20;;;;;11.90;96651.00;;;;5078651;28;20721;-69
2022/04/10 09:27:53;;;;;;;2.77;0.87;;;;;12.20;96639.00;;;;5077441;28;20778;-61
2022/04/10 09:30:42;;;;;;;1.70;0.90;;;;;9.80;96670.00;;;;5076294;28;20603;-71
2022/04/10 09:33:50;;;;;;;1.00;0.90;;;;;11.70;96670.00;;;;5073313;28;20216;-72
2022/04/10 09:36:41;;;;;;;0.90;0.80;;;;;12.00;96700.00;;;;5082158;28;20209;-72
2022/04/10 09:39:32;;;;;;;1.90;1.23;;;;;9.40;96685.00;;;;5082357;28;20215;-71
2022/04/10 09:42:32;;;;;;;1.23;1.07;;;;;10.80;96695.00;;;;5077358;28;20203;-72
2022/04/10 09:45:38;;;;;;;1.27;1.00;;;;;10.30;96693.00;;;;5074238;28;20239;-63
2022/04/10 09:48:29;;;;;;;1.40;1.27;;;;;11.00;96704.00;;;;5075807;28;20215;-70
2022/04/10 09:51:19;;;;;;;0.83;0.83;;;;;11.80;96711.00;;;;5077588;28;20214;-71
2022/04/10 09:54:08;;;;;;;1.03;0.87;;;;;10.80;96711.00;;;;5080741;28;20220;-71
2022/04/10 09:56:57;;;;;;;0.80;0.80;;;;;11.00;96709.00;;;;5078935;28;21348;-72
2022/04/10 09:59:47;;;;;;;1.23;0.80;;;;;11.50;96708.00;;;;5080016;28;20208;-71
2022/04/10 10:02:37;;;;;;;2.70;1.03;;;;;11.20;96725.00;;;;5081650;28;20571;-71
2022/04/10 10:05:26;;;;;;;1.33;1.00;;;;;9.80;96707.00;;;;5078738;28;20227;-71
2022/04/10 10:08:18;;;;;;;0.90;0.90;;;;;11.70;96689.00;;;;5083165;28;20282;-72
2022/04/10 10:11:08;;;;;;;1.10;1.00;;;;;10.20;96677.00;;;;5079280;28;20583;-71
2022/04/10 10:13:57;;;;;;;1.27;0.80;;;;;10.20;96672.00;;;;5081398;28;20227;-70
2022/04/10 10:16:47;;;;;;;0.67;0.67;;;;;10.90;96701.00;;;;5081661;28;20199;-69
2022/04/10 10:19:38;;;;;;;2.33;1.30;;;;;11.90;96677.00;;;;5080505;28;20206;-70
2022/04/10 10:22:27;;;;;;;0.97;0.70;;;;;12.10;96689.00;;;;5078454;28;20207;-67
2022/04/10 10:25:24;;;;;;;2.97;2.53;;;;;12.20;96682.00;;;;5079644;28;20219;-71
2022/04/10 10:28:44;;;;;;;4.43;3.30;;;;;12.40;96692.00;;;;5079907;28;20658;-70
2022/04/10 10:31:46;;;;;;;2.80;2.10;;;;;11.90;96704.00;;;;5081218;28;20210;-71
2022/04/10 10:34:36;;;;;;;2.20;1.40;;;;;12.10;96701.00;;;;5080698;28;20262;-69
2022/04/10 10:37:30;;;;;;;1.07;0.90;;;;;11.90;96647.00;;;;5085103;28;20191;-72
2022/04/10 10:40:22;;;;;;;3.20;2.00;;;;;12.70;96698.00;;;;5081766;28;20211;-69
2022/04/10 10:43:11;;;;;;;1.83;1.40;;;;;12.60;96684.00;;;;5083193;28;20705;-69
2022/04/10 10:46:00;;;;;;;1.10;1.00;;;;;12.70;96658.00;;;;5081970;28;20598;-65
2022/04/10 10:49:27;;;;;;;1.57;1.00;;;;;12.70;96723.00;;;;5082952;28;20206;-68
2022/04/10 10:52:18;;;;;;;2.23;0.80;;;;;11.90;96699.00;;;;5081572;28;20211;-71
2022/04/10 10:55:15;;;;;;;0.73;0.73;;;;;11.50;96704.00;;;;5077354;28;20215;-69
2022/04/10 10:58:09;;;;;;;1.00;0.80;;;;;11.60;96696.00;;;;5076241;28;20206;-62
2022/04/10 11:01:03;;;;;;;1.90;0.87;;;;;11.00;96646.00;;;;5069244;28;20211;-69
2022/04/10 11:04:00;;;;;;;1.70;1.20;;;;;10.50;96629.00;;;;5070490;28;20581;-67
2022/04/10 11:06:50;;;;;;;1.13;0.80;;;;;10.70;96610.00;;;;5075854;28;20234;-72
2022/04/10 11:09:55;;;;;;;5.60;0.90;;;;;10.70;96612.00;;;;5078264;28;20610;-65
2022/04/10 11:12:48;;;;;;;0.50;0.50;;;;;10.90;96615.00;;;;5081295;28;20210;-62
2022/04/10 11:15:48;;;;;;;1.10;1.00;;;;;10.90;96642.00;;;;5080814;28;20226;-72
2022/04/10 11:18:42;;;;;;;1.00;1.00;;;;;11.60;96642.00;;;;5078445;28;20194;-67
2022/04/10 11:21:31;;;;;;;0.60;0.60;;;;;11.60;96618.00;;;;5075961;28;20245;-72
2022/04/10 11:24:23;;;;;;;2.30;0.77;;;;;11.90;96632.00;;;;5076595;28;20592;-72
2022/04/10 11:27:14;;;;;;;1.00;0.90;;;;;13.40;96704.00;;;;5074761;28;20228;-71
2022/04/10 11:30:06;;;;;;;0.60;0.60;;;;;13.00;96686.00;;;;5073641;28;20548;-70
2022/04/10 11:33:03;;;;;;;0.77;0.77;;;;;12.50;96710.00;;;;5077047;28;20578;-71
2022/04/10 11:35:57;;;;;;;0.80;0.80;;;;;12.10;96710.00;;;;5076687;28;20211;-61
2022/04/10 11:39:10;;;;;;;2.17;1.10;;;;;14.20;96669.00;;;;5080141;28;20673;-69
2022/04/10 11:42:00;;;;;;;0.80;0.80;;;;;15.70;96674.00;;;;5082290;28;20214;-67
2022/04/10 11:44:50;;;;;;;1.10;0.97;;;;;15.90;96660.00;;;;5081711;28;20233;-68
2022/04/10 11:47:41;;;;;;;1.03;0.70;;;;;15.10;96667.00;;;;5073969;28;20709;-71
2022/04/10 11:50:32;;;;;;;1.53;0.80;;;14.70;44.90;14.60;96723.00;;;;5081199;28;20210;-67
2022/04/10 11:53:20;;;;;;;0.90;0.90;;;14.40;46.50;14.80;96706.00;;;;5072867;28;20654;-66
2022/04/10 11:56:13;;;;;;;0.80;0.80;;;14.40;46.50;12.20;96716.00;;;;5080218;28;20203;-71
2022/04/10 11:59:02;;;;;;;1.03;0.60;;;13.90;44.40;11.40;96670.00;;;;5078468;28;20206;-60
2022/04/10 12:01:51;;;;;;;0.50;0.50;;;13.00;44.90;13.60;96664.00;;;;5078696;28;20202;-71
2022/04/10 12:04:42;;;;;;;0.57;0.57;;;13.10;46.50;11.70;96746.00;;;;5080517;28;20211;-62
2022/04/10 12:07:32;;;;;;;0.87;0.70;;;12.60;45.40;12.10;96723.00;;;;5081186;28;20704;-70
2022/04/10 12:10:21;;;;;;;0.53;0.53;;;12.20;45.90;12.00;96667.00;;;;5081374;28;20199;-69
2022/04/10 12:13:10;;;;;;;1.07;0.90;;;12.00;46.00;12.90;96732.00;;;;5080009;28;20203;-68
2022/04/10 12:15:59;;;;;;;5.40;0.93;;;12.30;46.10;11.40;96666.00;;;;5082245;28;20214;-71
2022/04/10 12:18:49;;;;;;;1.20;1.10;;;12.30;46.30;11.50;96683.00;;;;5083920;28;20695;-71
2022/04/10 12:21:38;;;;;;;2.40;1.00;;;12.10;46.70;12.10;96711.00;;;;5079777;28;20202;-70
2022/04/10 12:24:28;;;;;;;1.57;0.90;;;12.00;48.00;11.70;96716.00;;;;5079166;28;20231;-69
2022/04/10 12:27:18;;;;;;;1.20;0.90;;;11.90;47.10;12.00;96754.00;;;;5075548;28;20233;-71
2022/04/10 12:30:13;;;;;;;0.90;0.70;;;11.70;48.10;12.10;96747.00;;;;5081631;28;20191;-61
2022/04/10 12:33:02;;;;;;;3.10;0.90;;;11.80;48.80;12.60;96761.00;;;;5081694;28;20207;-70
2022/04/10 12:35:51;;;;;;;2.23;0.67;;;11.90;49.60;12.00;96727.00;;;;5076404;28;20204;-68
2022/04/10 12:38:39;;;;;;;0.87;0.70;;;12.00;50.40;12.00;96762.00;;;;5080261;28;21088;-70
2022/04/10 12:41:31;;;;;;;2.10;0.50;;;11.90;50.70;10.40;96778.00;;;;5082398;28;20681;-70
2022/04/10 12:44:24;;;;;;;0.57;0.50;;;;;11.10;96789.00;;;;5076675;28;20223;-71
2022/04/10 12:47:12;;;;;;;0.60;0.50;;;11.20;51.20;10.40;96778.00;;;;5079471;28;20223;-70
2022/04/10 12:50:10;;;;;;;0.70;0.70;;;11.00;52.40;10.40;96789.00;;;;5079996;28;20203;-71
2022/04/10 12:52:58;;;;;;;1.70;0.70;;;10.70;53.70;10.20;96789.00;;;;5078690;28;20223;-70
2022/04/10 12:55:47;;;;;;;0.70;0.70;;;10.40;54.40;10.30;96791.00;;;;5080469;28;20192;-70
2022/04/10 12:58:48;;;;;;;1.17;0.70;;;10.20;54.80;10.40;96788.00;;;;5079591;28;20211;-70
2022/04/10 13:01:37;;;;;;;0.70;0.53;;;;;9.90;96785.00;;;;5075483;28;20606;-68
2022/04/10 13:04:30;;;;;;;1.13;0.90;;;;;9.60;96794.00;;;;5077143;28;20265;-70
2022/04/10 13:07:19;;;;;;;1.43;1.07;;;;;10.00;96794.00;;;;5070834;28;20231;-69
2022/04/10 13:10:09;;;;;;;0.57;0.57;;;;;10.00;96788.00;;;;5070620;28;20553;-70
2022/04/10 13:13:05;;;;;;;3.33;0.50;;;;;12.20;96763.00;;;;5075842;28;20436;-69
2022/04/10 13:15:57;;;;;;;0.97;0.80;;;;;12.00;96701.00;;;;5079931;28;20214;-70
2022/04/10 13:18:51;;;;;;;0.50;0.50;;;;;13.80;96787.00;;;;5076884;28;20195;-71
2022/04/10 13:21:42;;;;;;;0.60;0.60;;;;;12.60;96780.00;;;;5088275;28;20211;-71
2022/04/10 13:24:31;;;;;;;1.73;0.60;;;;;12.60;96787.00;;;;5086274;28;20238;-71
2022/04/10 13:27:20;;;;;;;0.60;0.60;;;;;12.60;96796.00;;;;5084928;28;20215;-71
2022/04/10 13:30:11;;;;;;;0.40;0.40;;;;;12.00;96810.00;;;;5084760;28;20211;-71
2022/04/10 13:33:01;;;;;;;0.70;0.70;;;;;10.50;96805.00;;;;5086030;28;20693;-69
2022/04/10 13:35:50;;;;;;;0.80;0.80;;;;;9.30;96806.00;;;;5083753;28;20192;-68
2022/04/10 13:38:39;;;;;;;1.17;1.00;;;10.80;54.50;11.30;96797.00;;;;5082535;28;20203;-67
2022/04/10 13:41:28;;;;;;;1.20;1.07;;;10.60;59.10;13.00;96726.00;;;;5082205;28;20257;-63
2022/04/10 13:44:17;;;;;;;2.37;0.83;;;11.10;59.60;13.80;96745.00;;;;5074868;28;20222;-66
2022/04/10 13:47:06;;;;;;;1.10;1.00;;;12.40;57.70;14.30;96744.00;;;;5079062;28;20203;-67
2022/04/10 13:49:56;;;;;;;1.40;1.30;;;12.60;56.60;14.90;96734.00;;;;5077869;28;20203;-66
2022/04/10 13:52:45;;;;;;;2.70;1.30;;;13.20;56.00;16.70;96747.00;;;;5080835;28;20195;-66
2022/04/10 13:55:33;;;;;;;0.93;0.70;;;14.00;55.30;14.70;96727.00;;;;5080176;28;20234;-65
2022/04/10 13:58:22;;;;;;;0.70;0.60;;;14.50;51.60;15.70;96739.00;;;;5081884;28;20196;-69
2022/04/10 14:01:11;;;;;;;1.40;1.27;;;14.60;51.30;16.10;96734.00;;;;5083271;28;20213;-66
2022/04/10 14:04:00;;;;;;;1.20;0.80;;;14.80;51.30;16.90;96740.00;;;;5083284;28;20570;-70
2022/04/10 14:06:50;;;;;;;0.90;0.90;;;15.30;50.80;15.00;96722.00;;;;5081043;28;20203;-71
2022/04/10 14:09:39;;;;;;;1.37;0.70;;;15.20;48.70;17.60;96745.00;;;;5081174;28;20215;-70